createdAt,value
2022-09-20T00:01:25.383Z,73.14
2022-09-20T00:03:55.493Z,73.55
2022-09-20T00:06:28.684Z,74.35
2022-09-20T00:08:57.783Z,74.31
2022-09-20T00:11:27.699Z,74.80
2022-09-20T00:13:56.847Z,75.22
2022-09-20T00:16:32.893Z,75.22
2022-09-20T00:19:04.293Z,75.82
2022-09-20T00:21:33.979Z,76.90
2022-09-20T00:24:03.012Z,77.11
2022-09-20T00:26:31.389Z,77.17
2022-09-20T00:29:00.640Z,76.37
2022-09-20T00:31:29.449Z,77.75
2022-09-20T00:34:17.111Z,77.61
2022-09-20T00:36:45.799Z,78.04
2022-09-20T00:39:15.411Z,77.52
2022-09-20T00:41:43.995Z,77.43
2022-09-20T00:44:30.905Z,77.50
2022-09-20T00:47:00.414Z,77.22
2022-09-20T00:49:38.628Z,77.12
2022-09-20T00:52:07.309Z,77.03
2022-09-20T00:54:36.198Z,77.31
2022-09-20T00:57:04.681Z,76.79
2022-09-20T00:59:38.897Z,77.18
2022-09-20T01:02:12.954Z,77.39
2022-09-20T01:04:43.028Z,77.46
2022-09-20T01:07:13.928Z,77.81
2022-09-20T01:09:42.248Z,77.37
2022-09-20T01:12:13.834Z,77.69
2022-09-20T01:14:42.999Z,77.42
2022-09-20T01:17:11.878Z,77.61
2022-09-20T01:19:40.064Z,77.10
2022-09-20T01:22:18.765Z,77.21
2022-09-20T01:24:56.383Z,76.95
2022-09-20T01:27:45.019Z,76.91
2022-09-20T01:30:24.578Z,77.33
2022-09-20T01:32:52.958Z,77.55
2022-09-20T01:35:24.549Z,77.61
2022-09-20T01:38:03.237Z,77.31
2022-09-20T01:40:38.733Z,77.54
2022-09-20T01:43:12.362Z,77.70
2022-09-20T01:45:44.831Z,77.75
2022-09-20T01:48:26.451Z,78.06
2022-09-20T01:50:58.105Z,78.27
2022-09-20T01:53:41.641Z,78.42
2022-09-20T01:56:19.208Z,78.48
2022-09-20T01:59:07.222Z,79.80
2022-09-20T02:01:51.521Z,79.72
2022-09-20T02:04:32.417Z,80.13
2022-09-20T02:07:11.459Z,80.76
2022-09-20T02:09:58.857Z,80.56
2022-09-20T02:12:45.981Z,80.92
2022-09-20T02:15:20.606Z,80.55
2022-09-20T02:18:00.757Z,80.09
2022-09-20T02:20:47.776Z,79.82
2022-09-20T02:23:29.372Z,80.35
2022-09-20T02:26:00.509Z,80.43
2022-09-20T02:28:49.707Z,80.48
2022-09-20T02:31:37.228Z,80.66
2022-09-20T02:34:12.239Z,80.59
2022-09-20T02:36:40.709Z,80.75
2022-09-20T02:39:27.981Z,80.47
2022-09-20T02:41:56.941Z,80.09
2022-09-20T02:44:34.840Z,80.40
2022-09-20T02:47:03.125Z,80.81
2022-09-20T02:50:10.023Z,80.69
2022-09-20T02:52:44.014Z,81.53
2022-09-20T02:55:18.247Z,82.20
2022-09-20T02:58:00.124Z,81.39
2022-09-20T03:00:48.714Z,80.79
2022-09-20T03:03:20.335Z,81.02
2022-09-20T03:05:57.833Z,81.35
2022-09-20T03:08:45.388Z,81.40
2022-09-20T03:11:20.085Z,82.55
2022-09-20T03:13:51.331Z,82.05
2022-09-20T03:16:29.186Z,81.85
2022-09-20T03:19:22.300Z,82.18
2022-09-20T03:22:09.309Z,82.24
2022-09-20T03:24:56.736Z,82.23
2022-09-20T03:27:31.671Z,82.61
2022-09-20T03:30:16.536Z,82.42
2022-09-20T03:32:47.575Z,83.04
2022-09-20T03:35:35.083Z,82.68
2022-09-20T03:38:22.225Z,83.03
2022-09-20T03:40:50.835Z,83.04
2022-09-20T03:43:19.294Z,83.63
2022-09-20T03:45:59.699Z,84.15
2022-09-20T03:48:43.189Z,83.19
2022-09-20T03:51:14.740Z,83.63
2022-09-20T03:53:52.609Z,83.27
2022-09-20T03:56:27.167Z,83.31
2022-09-20T03:58:58.618Z,83.09
2022-09-20T04:01:39.454Z,83.91
2022-09-20T04:04:26.917Z,83.49
2022-09-20T04:06:56.935Z,83.79
2022-09-20T04:09:25.211Z,83.38
2022-09-20T04:12:16.839Z,83.25
2022-09-20T04:14:48.597Z,83.56
2022-09-20T04:17:35.920Z,83.29
2022-09-20T04:20:36.761Z,83.92
2022-09-20T04:23:15.174Z,83.66
2022-09-20T04:25:47.240Z,84.32
2022-09-20T04:28:20.228Z,84.39
2022-09-20T04:30:51.987Z,84.31
2022-09-20T04:33:31.858Z,83.78
2022-09-20T04:36:30.536Z,83.60
2022-09-20T04:39:31.014Z,83.69
2022-09-20T04:42:10.089Z,83.31
2022-09-20T04:44:56.900Z,83.07
2022-09-20T04:47:28.254Z,83.66
2022-09-20T04:50:15.368Z,83.69
2022-09-20T04:53:06.992Z,83.29
2022-09-20T04:55:36.089Z,83.31
2022-09-20T04:58:21.472Z,83.67
2022-09-20T05:01:08.537Z,83.78
2022-09-20T05:04:09.430Z,84.55
2022-09-20T05:06:46.718Z,84.15
2022-09-20T05:09:47.561Z,84.52
2022-09-20T05:12:16.632Z,84.20
2022-09-20T05:14:54.248Z,83.92
2022-09-20T05:17:22.694Z,83.94
2022-09-20T05:20:10.360Z,83.64
2022-09-20T05:22:48.572Z,83.73
2022-09-20T05:25:26.191Z,83.53
2022-09-20T05:28:02.431Z,83.52
2022-09-20T05:30:42.995Z,83.54
2022-09-20T05:33:30.219Z,83.39
2022-09-20T05:36:07.506Z,82.85
2022-09-20T05:38:41.678Z,82.87
2022-09-20T05:41:14.427Z,82.47
2022-09-20T05:44:01.525Z,81.93
2022-09-20T05:46:35.958Z,81.57
2022-09-20T05:49:31.461Z,81.27
2022-09-20T05:52:26.362Z,80.38
2022-09-20T05:55:00.856Z,79.50
2022-09-20T05:57:29.572Z,78.47
2022-09-20T06:00:02.458Z,77.60
2022-09-20T06:03:00.226Z,76.82
2022-09-20T06:05:47.140Z,76.22
2022-09-20T06:08:27.808Z,75.26
2022-09-20T06:11:18.797Z,74.51
2022-09-20T06:14:00.103Z,74.16
2022-09-20T06:16:35.763Z,73.38
2022-09-20T06:19:15.425Z,72.71
2022-09-20T06:21:59.802Z,71.82
2022-09-20T06:24:49.529Z,71.02
2022-09-20T06:27:24.874Z,69.94
2022-09-20T06:29:56.324Z,69.75
2022-09-20T06:32:24.806Z,67.88
2022-09-20T06:34:53.907Z,66.93
2022-09-20T06:37:59.968Z,65.27
2022-09-20T06:40:58.766Z,64.41
2022-09-20T06:43:28.168Z,63.90
2022-09-20T06:45:56.899Z,62.05
2022-09-20T06:48:25.643Z,61.97
2022-09-20T06:50:54.020Z,61.18
2022-09-20T06:53:30.038Z,59.53
2022-09-20T06:55:59.280Z,58.36
2022-09-20T06:58:27.492Z,58.15
2022-09-20T07:00:56.182Z,56.33
2022-09-20T07:03:24.728Z,55.07
2022-09-20T07:05:53.827Z,53.44
2022-09-20T07:08:22.514Z,52.85
2022-09-20T07:10:51.247Z,53.17
2022-09-20T07:13:20.603Z,53.60
2022-09-20T07:15:49.406Z,51.80
2022-09-20T07:18:17.980Z,49.79
2022-09-20T07:20:46.664Z,46.84
2022-09-20T07:23:16.070Z,46.75
2022-09-20T07:25:44.555Z,47.10
2022-09-20T07:28:12.829Z,45.15
2022-09-20T07:30:41.311Z,44.20
2022-09-20T07:33:10.714Z,41.54
2022-09-20T07:35:39.096Z,42.66
2022-09-20T07:38:07.578Z,43.52
2022-09-20T07:40:36.406Z,42.50
2022-09-20T07:43:04.858Z,42.23
2022-09-20T07:45:34.573Z,42.67
2022-09-20T07:48:05.603Z,41.94
2022-09-20T07:50:34.090Z,41.58
2022-09-20T07:53:03.900Z,40.22
2022-09-20T07:55:32.590Z,38.87
2022-09-20T07:58:00.866Z,39.27
2022-09-20T08:00:29.552Z,39.37
2022-09-20T08:02:59.415Z,39.26
2022-09-20T08:05:27.749Z,38.06
2022-09-20T08:07:56.315Z,36.88
2022-09-20T08:10:25.531Z,35.61
2022-09-20T08:15:43.477Z,34.28
2022-09-20T08:18:13.648Z,35.76
2022-09-20T08:20:41.988Z,35.69
2022-09-20T08:23:22.934Z,35.57
2022-09-20T08:25:52.575Z,35.19
2022-09-20T08:28:21.364Z,35.36
2022-09-20T08:30:50.461Z,34.45
2022-09-20T08:33:19.055Z,34.59
2022-09-20T08:35:49.456Z,34.28
2022-09-20T08:41:15.578Z,33.70
2022-09-20T08:43:51.074Z,32.39
2022-09-20T08:46:23.264Z,32.87
2022-09-20T08:48:52.848Z,32.24
2022-09-20T08:51:23.328Z,32.66
2022-09-20T08:53:53.454Z,32.78
2022-09-20T08:56:23.105Z,32.44
2022-09-20T08:58:52.207Z,32.15
2022-09-20T09:01:22.704Z,32.29
2022-09-20T09:03:51.934Z,30.76
2022-09-20T09:06:23.605Z,31.15
2022-09-20T09:08:55.658Z,30.99
2022-09-20T09:11:24.856Z,31.37
2022-09-20T09:14:01.737Z,32.05
2022-09-20T09:16:35.394Z,32.66
2022-09-20T09:19:34.447Z,32.15
2022-09-20T09:22:04.566Z,30.48
2022-09-20T09:24:33.563Z,31.84
2022-09-20T09:27:16.890Z,32.35
2022-09-20T09:29:52.774Z,31.95
2022-09-20T09:32:21.325Z,32.55
2022-09-20T09:34:50.319Z,33.36
2022-09-20T09:37:28.310Z,33.76
2022-09-20T09:40:06.476Z,34.14
2022-09-20T09:42:35.609Z,34.07
2022-09-20T09:45:13.640Z,33.72
2022-09-20T09:47:42.125Z,33.22
2022-09-20T09:50:21.620Z,33.15
2022-09-20T09:53:22.915Z,32.12
2022-09-20T09:55:54.369Z,31.46
2022-09-20T09:58:28.892Z,31.96
2022-09-20T10:01:00.004Z,31.66
2022-09-20T10:03:33.947Z,31.72
2022-09-20T10:06:10.007Z,30.87
2022-09-20T10:08:47.590Z,31.53
2022-09-20T10:11:28.927Z,31.85
2022-09-20T10:14:05.962Z,32.00
2022-09-20T10:16:53.348Z,31.63
2022-09-20T10:19:40.914Z,30.55
2022-09-20T10:22:25.077Z,29.49
2022-09-20T10:24:59.843Z,29.28
2022-09-20T10:28:03.822Z,30.18
2022-09-20T10:30:42.667Z,29.25
2022-09-20T10:33:11.483Z,28.17
2022-09-20T10:35:39.713Z,28.11
2022-09-20T10:38:27.449Z,27.95
2022-09-20T10:41:14.774Z,28.26
2022-09-20T10:43:52.187Z,28.98
2022-09-20T10:46:39.631Z,28.92
2022-09-20T10:49:25.195Z,27.32
2022-09-20T10:52:01.017Z,27.17
2022-09-20T10:54:44.873Z,26.68
2022-09-20T10:57:35.420Z,26.81
2022-09-20T11:00:23.107Z,25.85
2022-09-20T11:03:10.637Z,26.52
2022-09-20T11:05:55.913Z,26.83
2022-09-20T11:08:27.263Z,28.26
2022-09-20T11:10:59.227Z,28.64
2022-09-20T11:13:30.885Z,28.82
2022-09-20T11:16:00.595Z,29.07
2022-09-20T11:18:33.587Z,29.15
2022-09-20T11:21:02.170Z,28.76
2022-09-20T11:23:30.344Z,27.38
2022-09-20T11:26:08.146Z,25.14
2022-09-20T11:28:39.707Z,24.49
2022-09-20T11:31:22.966Z,24.13
2022-09-20T11:34:01.651Z,24.94
2022-09-20T11:36:30.032Z,24.52
2022-09-20T11:39:03.837Z,24.19
2022-09-20T11:41:32.627Z,24.30
2022-09-20T11:44:04.594Z,23.78
2022-09-20T11:46:40.449Z,23.76
2022-09-20T11:49:19.887Z,24.63
2022-09-20T11:51:54.309Z,25.07
2022-09-20T11:54:42.969Z,25.20
2022-09-20T11:57:18.303Z,25.30
2022-09-20T11:59:53.345Z,25.40
2022-09-20T12:02:31.550Z,25.82
2022-09-20T12:05:02.289Z,25.43
2022-09-20T12:07:37.024Z,22.72
2022-09-20T12:10:24.044Z,23.18
2022-09-20T12:12:57.997Z,23.90
2022-09-20T12:15:39.870Z,23.92
2022-09-20T12:18:09.638Z,24.18
2022-09-20T12:20:42.766Z,23.83
2022-09-20T12:23:32.025Z,24.49
2022-09-20T12:26:03.163Z,23.81
2022-09-20T12:28:35.830Z,21.98
2022-09-20T12:31:20.272Z,22.63
2022-09-20T12:34:24.113Z,22.96
2022-09-20T12:36:55.963Z,23.87
2022-09-20T12:39:30.018Z,24.23
2022-09-20T12:41:59.784Z,25.18
2022-09-20T12:44:46.924Z,25.65
2022-09-20T12:47:23.685Z,26.06
2022-09-20T12:50:15.530Z,26.13
2022-09-20T12:53:02.956Z,26.15
2022-09-20T12:55:40.243Z,25.91
2022-09-20T12:58:14.718Z,24.84
2022-09-20T13:00:45.587Z,24.20
2022-09-20T13:03:24.092Z,24.41
2022-09-20T13:06:09.093Z,24.65
2022-09-20T13:08:48.922Z,24.84
2022-09-20T13:11:24.083Z,25.32
2022-09-20T13:13:58.095Z,25.39
2022-09-20T13:16:30.694Z,25.69
2022-09-20T13:19:05.922Z,25.69
2022-09-20T13:21:36.957Z,25.51
2022-09-20T13:24:05.866Z,24.87
2022-09-20T13:26:37.581Z,24.47
2022-09-20T13:29:08.753Z,24.17
2022-09-20T13:31:37.181Z,23.38
2022-09-20T13:34:22.800Z,22.38
2022-09-20T13:36:56.310Z,21.96
2022-09-20T13:39:33.144Z,21.71
2022-09-20T13:42:02.811Z,21.76
2022-09-20T13:44:33.867Z,21.65
2022-09-20T13:47:07.253Z,22.31
2022-09-20T13:49:35.832Z,22.86
2022-09-20T13:52:16.139Z,22.94
2022-09-20T13:54:44.677Z,23.59
2022-09-20T13:57:19.404Z,23.02
2022-09-20T13:59:48.297Z,22.42
2022-09-20T14:02:24.692Z,20.91
2022-09-20T14:04:55.576Z,19.94
2022-09-20T14:07:26.399Z,19.73
2022-09-20T14:09:55.672Z,19.27
2022-09-20T14:12:24.841Z,18.04
2022-09-20T14:14:53.754Z,18.49
2022-09-20T14:17:24.768Z,17.71
2022-09-20T14:19:58.618Z,17.18
2022-09-20T14:22:28.083Z,17.20
2022-09-20T14:25:00.074Z,17.08
2022-09-20T14:27:31.476Z,17.65
2022-09-20T14:29:59.990Z,17.41
2022-09-20T14:32:48.748Z,18.24
2022-09-20T14:35:17.346Z,19.48
2022-09-20T14:37:48.689Z,20.05
2022-09-20T14:40:27.456Z,19.84
2022-09-20T14:43:00.503Z,20.02
2022-09-20T14:45:35.384Z,20.39
2022-09-20T14:48:10.314Z,20.62
2022-09-20T14:50:59.125Z,20.65
2022-09-20T14:53:27.711Z,20.79
2022-09-20T14:56:07.351Z,20.67
2022-09-20T14:58:55.345Z,20.40
2022-09-20T15:01:24.898Z,20.05
2022-09-20T15:03:53.498Z,19.37
2022-09-20T15:06:21.987Z,19.28
2022-09-20T15:08:50.755Z,18.60
2022-09-20T15:11:19.545Z,18.97
2022-09-20T15:13:48.027Z,18.12
2022-09-20T15:16:18.401Z,17.86
2022-09-20T15:18:47.143Z,17.94
2022-09-20T15:21:15.522Z,17.98
2022-09-20T15:23:44.314Z,17.89
2022-09-20T15:26:14.337Z,18.14
2022-09-20T15:28:43.156Z,18.29
2022-09-20T15:31:13.909Z,18.30
2022-09-20T15:33:42.644Z,18.44
2022-09-20T15:36:10.923Z,18.72
2022-09-20T15:38:39.986Z,19.31
2022-09-20T15:41:08.607Z,19.74
2022-09-20T15:43:36.912Z,20.26
2022-09-20T15:46:17.348Z,20.65
2022-09-20T15:48:46.135Z,21.22
2022-09-20T15:51:15.540Z,21.70
2022-09-20T15:53:45.557Z,22.17
2022-09-20T15:56:15.954Z,22.79
2022-09-20T15:58:46.981Z,23.50
2022-09-20T16:01:18.520Z,24.44
2022-09-20T16:03:47.310Z,25.17
2022-09-20T16:06:15.547Z,26.42
2022-09-20T16:08:44.065Z,26.50
2022-09-20T16:11:13.643Z,27.60
2022-09-20T16:13:42.225Z,28.65
2022-09-20T16:16:13.680Z,29.04
2022-09-20T16:19:00.794Z,29.40
2022-09-20T16:21:29.484Z,29.95
2022-09-20T16:23:58.482Z,31.24
2022-09-20T16:26:28.086Z,31.53
2022-09-20T16:28:56.412Z,31.98
2022-09-20T16:31:36.939Z,32.68
2022-09-20T16:34:13.762Z,32.96
2022-09-20T16:36:42.780Z,32.87
2022-09-20T16:39:11.801Z,34.68
2022-09-20T16:41:40.799Z,35.41
2022-09-20T16:44:09.684Z,35.82
2022-09-20T16:46:38.167Z,36.27
2022-09-20T16:49:09.752Z,36.49
2022-09-20T16:51:39.307Z,36.92
2022-09-20T16:54:12.526Z,37.07
2022-09-20T16:56:42.315Z,37.08
2022-09-20T16:59:11.069Z,38.13
2022-09-20T17:01:40.221Z,38.44
2022-09-20T17:04:09.198Z,38.85
2022-09-20T17:06:38.829Z,39.96
2022-09-20T17:09:07.616Z,41.34
2022-09-20T17:11:37.734Z,40.56
2022-09-20T17:14:06.630Z,40.28
2022-09-20T17:16:36.053Z,41.16
2022-09-20T17:19:09.174Z,41.70
2022-09-20T17:21:44.977Z,42.10
2022-09-20T17:24:14.893Z,42.02
2022-09-20T17:31:20.311Z,43.51
2022-09-20T17:34:28.350Z,43.26
2022-09-20T17:36:57.375Z,43.29
2022-09-20T17:39:25.957Z,42.71
2022-09-20T17:41:54.246Z,42.60
2022-09-20T17:44:23.024Z,43.05
2022-09-20T17:46:52.371Z,42.59
2022-09-20T17:49:22.552Z,42.69
2022-09-20T17:51:52.552Z,42.44
2022-09-20T17:54:21.399Z,42.26
2022-09-20T17:56:51.204Z,42.75
2022-09-20T17:59:20.723Z,43.26
2022-09-20T18:01:50.747Z,43.19
2022-09-20T18:04:21.107Z,43.57
2022-09-20T18:06:50.615Z,44.22
2022-09-20T18:09:20.236Z,44.57
2022-09-20T18:11:50.097Z,44.65
2022-09-20T18:14:19.353Z,45.02
2022-09-20T18:17:27.409Z,45.27
2022-09-20T18:20:41.005Z,44.66
2022-09-20T18:23:49.318Z,44.56
2022-09-20T18:26:24.828Z,44.53
2022-09-20T18:28:53.265Z,44.82
2022-09-20T18:31:23.011Z,45.17
2022-09-20T18:33:55.330Z,44.99
2022-09-20T18:36:25.884Z,46.56
2022-09-20T18:38:55.087Z,45.59
2022-09-20T18:41:25.794Z,45.04
2022-09-20T18:43:55.098Z,46.13
2022-09-20T18:46:25.078Z,46.46
2022-09-20T18:48:54.827Z,47.21
2022-09-20T18:51:24.742Z,46.30
2022-09-20T18:53:53.292Z,46.95
2022-09-20T18:56:23.303Z,46.93
2022-09-20T18:58:53.560Z,47.29
2022-09-20T19:01:35.060Z,47.34
2022-09-20T19:04:42.144Z,47.27
2022-09-20T19:07:36.734Z,47.30
2022-09-20T19:10:27.951Z,47.19
2022-09-20T19:13:45.260Z,47.40
2022-09-20T19:16:20.882Z,47.44
2022-09-20T19:19:08.149Z,47.41
2022-09-20T19:21:48.800Z,47.78
2022-09-20T19:24:35.837Z,48.30
2022-09-20T19:27:04.625Z,47.62
2022-09-20T19:29:33.619Z,47.24
2022-09-20T19:32:02.102Z,47.54
2022-09-20T19:34:32.487Z,48.21
2022-09-20T19:37:22.617Z,48.54
2022-09-20T19:40:09.866Z,48.61
2022-09-20T19:42:48.765Z,50.80
2022-09-20T19:45:20.218Z,50.59
2022-09-20T19:48:07.235Z,51.36
2022-09-20T19:50:40.220Z,52.16
2022-09-20T19:53:09.729Z,52.09
2022-09-20T19:55:38.514Z,52.53
2022-09-20T19:58:07.074Z,54.64
2022-09-20T20:00:35.728Z,54.03
2022-09-20T20:03:04.391Z,54.26
2022-09-20T20:05:33.059Z,55.35
2022-09-20T20:08:21.716Z,56.19
2022-09-20T20:11:08.321Z,55.87
2022-09-20T20:14:09.163Z,55.00
2022-09-20T20:16:47.209Z,54.86
2022-09-20T20:19:15.854Z,54.52
2022-09-20T20:21:52.529Z,54.44
2022-09-20T20:24:27.049Z,54.57
2022-09-20T20:26:55.433Z,54.64
2022-09-20T20:29:23.943Z,55.04
2022-09-20T20:31:52.293Z,56.02
2022-09-20T20:34:21.166Z,55.75
2022-09-20T20:36:49.981Z,56.60
2022-09-20T20:39:18.459Z,56.93
2022-09-20T20:41:52.775Z,57.00
2022-09-20T20:44:22.281Z,56.79
2022-09-20T20:46:51.177Z,57.96
2022-09-20T20:49:20.251Z,59.31
2022-09-20T20:51:49.200Z,58.78
2022-09-20T20:54:17.641Z,58.75
2022-09-20T20:56:46.021Z,58.47
2022-09-20T20:59:16.244Z,59.00
2022-09-20T21:01:47.646Z,60.62
2022-09-20T21:04:16.587Z,59.96
2022-09-20T21:06:45.275Z,59.65
2022-09-20T21:09:13.945Z,58.94
2022-09-20T21:11:46.948Z,60.32
2022-09-20T21:14:16.319Z,61.55
2022-09-20T21:16:45.347Z,60.04
2022-09-20T21:19:18.615Z,59.07
2022-09-20T21:21:48.087Z,59.99
2022-09-20T21:24:20.011Z,60.40
2022-09-20T21:26:48.731Z,61.11
2022-09-20T21:29:17.278Z,60.04
2022-09-20T21:31:47.070Z,59.52
2022-09-20T21:34:16.295Z,59.27
2022-09-20T21:36:45.086Z,59.21
2022-09-20T21:39:13.867Z,59.45
2022-09-20T21:41:42.454Z,61.08
2022-09-20T21:44:11.343Z,61.56
2022-09-20T21:46:40.502Z,61.06
2022-09-20T21:49:10.264Z,61.30
2022-09-20T21:51:39.555Z,61.05
2022-09-20T21:54:07.838Z,60.39
2022-09-20T21:56:36.722Z,60.48
2022-09-20T21:59:06.463Z,61.11
2022-09-20T22:01:36.755Z,61.67
2022-09-20T22:04:06.855Z,62.93
2022-09-20T22:06:39.357Z,62.88
2022-09-20T22:09:12.035Z,61.60
2022-09-20T22:11:42.257Z,61.42
2022-09-20T22:14:11.355Z,61.04
2022-09-20T22:16:41.578Z,60.80
2022-09-20T22:19:11.082Z,60.45
2022-09-20T22:21:41.005Z,61.05
2022-09-20T22:24:10.891Z,61.69
2022-09-20T22:26:40.752Z,62.20
2022-09-20T22:29:09.415Z,63.75
2022-09-20T22:31:39.429Z,63.43
2022-09-20T22:34:08.014Z,62.76
2022-09-20T22:36:37.623Z,61.73
2022-09-20T22:39:09.835Z,62.93
2022-09-20T22:41:39.094Z,62.59
2022-09-20T22:44:07.470Z,62.68
2022-09-20T22:46:36.363Z,63.18
2022-09-20T22:49:05.818Z,62.77
2022-09-20T22:51:34.863Z,63.14
2022-09-20T22:54:10.505Z,62.22
2022-09-20T22:56:41.523Z,62.09
2022-09-20T22:59:10.785Z,62.79
2022-09-20T23:01:42.559Z,63.19
2022-09-20T23:04:15.706Z,64.07
2022-09-20T23:06:45.291Z,64.60
2022-09-20T23:09:14.307Z,64.34
2022-09-20T23:11:43.093Z,63.34
2022-09-20T23:14:12.420Z,63.09
2022-09-20T23:16:41.569Z,63.66
2022-09-20T23:19:12.536Z,64.96
2022-09-20T23:21:41.937Z,65.23
2022-09-20T23:24:11.546Z,64.14
2022-09-20T23:26:40.439Z,63.74
2022-09-20T23:29:10.585Z,64.32
2022-09-20T23:31:39.965Z,64.76
2022-09-20T23:34:08.647Z,64.35
2022-09-20T23:36:38.455Z,64.89
2022-09-20T23:39:08.016Z,67.28
2022-09-20T23:41:37.063Z,67.26
2022-09-20T23:44:06.968Z,66.65
2022-09-20T23:46:36.036Z,66.34
2022-09-20T23:49:04.803Z,65.76
2022-09-20T23:51:34.578Z,65.06
2022-09-20T23:54:03.806Z,64.82
2022-09-20T23:56:32.255Z,65.99
2022-09-20T23:59:00.679Z,65.97
